Главная страница
METAR-TAF:

METAR-TAF

Аэропорты :

Харьков, Украина

широта: 49-58N, долгота: 036-08E, высота над уровнем моря: 154 м

Текущие метеонаблюдения

Эта сводка был подготовлена 11 минут назад, в 03:00 UTC
Ветер 2 Узел от северно-северо-западный
Температура 20°C
Влажность 73%
Давление 1016 hPa
Видимость 10 км и более
Нет облачности ниже 1500 м, и нет кучево-дождевой облачности

METAR: UKHH 170300Z 34001MPS CAVOK 20/15 Q1016 R07/0///72 NOSIG

Время: 06:11 (03:11 UTC)

Прогноз

Эта сводка был подготовлена 1 час и 1 минут назад, в 02:10 UTC
Прогноз действительный с 17-го 03 UTC до 17-го 12 UTC
Ветер 6 Узел от северный
Видимость 10 км и более
Отдельные облака на высоте 2000 фута, Кучево-дождевые.
Вероятность 40% :
временами
С 17-го 03 UTC до 17-го 12 UTC
Ветер 14 Узел от северо-восточный с порывами до 25 Узел
Видимость: 2100 м
гроза, небольшой дождь

TAF: UKHH 170210Z 1703/1712 01003MPS 9999 SCT020CB TX33/1712Z TN20/1703Z PROB40 TEMPO 1703/1712 04007G13MPS 2100 -TSRA

Метеонаблюдения и прогнозы для более 4000 аэропортов (сводки METAR и TAF).

Имеющиеся станции представлены на карте желтыми и красными точками.

Чтобы увидеть название станции, наведите на нее мышь.

Затем щелкните, чтобы увидеть метеонаблюдения и метеопрогнозы.

Управление картой: чтобы увеличить масштаб, щелкните зеленые кнопки с черным крестиком; чтобы уменьшить масштаб, щелкните зеленую кнопку с тире; для просмотра соседних карт щелкайте зеленые стрелки.


METAR-TAF: